createdAt,value
2023-05-02T00:01:21.784Z,17.60
2023-05-02T00:03:49.014Z,17.85
2023-05-02T00:06:16.141Z,18.15
2023-05-02T00:08:43.263Z,16.90
2023-05-02T00:11:10.380Z,18.67
2023-05-02T00:13:37.351Z,18.52
2023-05-02T00:16:04.774Z,19.63
2023-05-02T00:18:31.738Z,13.13
2023-05-02T00:20:58.769Z,12.40
2023-05-02T00:23:25.786Z,19.98
2023-05-02T00:25:52.811Z,19.40
2023-05-02T00:28:19.835Z,19.98
2023-05-02T00:30:47.328Z,20.63
2023-05-02T00:33:15.844Z,19.80
2023-05-02T00:35:42.874Z,13.40
2023-05-02T00:38:10.146Z,21.40
2023-05-02T00:40:48.295Z,13.68
2023-05-02T00:43:15.906Z,21.17
2023-05-02T00:45:44.185Z,21.27
2023-05-02T00:48:11.838Z,20.50
2023-05-02T00:50:40.781Z,20.98
2023-05-02T00:53:09.678Z,19.48
2023-05-02T00:55:37.161Z,21.40
2023-05-02T00:58:08.866Z,20.58
2023-05-02T01:00:54.650Z,21.15
2023-05-02T01:03:50.086Z,21.45
2023-05-02T01:06:42.192Z,14.57
2023-05-02T01:09:45.933Z,12.63
2023-05-02T01:12:24.957Z,13.77
2023-05-02T01:14:55.666Z,20.75
2023-05-02T01:17:28.030Z,21.13
2023-05-02T01:19:59.121Z,20.65
2023-05-02T01:22:30.274Z,13.70
2023-05-02T01:25:21.211Z,12.77
2023-05-02T01:27:54.759Z,19.33
2023-05-02T01:30:23.721Z,18.67
2023-05-02T01:32:53.961Z,12.88
2023-05-02T01:35:22.998Z,11.07
2023-05-02T01:37:52.123Z,10.10
2023-05-02T01:40:22.673Z,10.05
2023-05-02T01:42:51.917Z,13.85
2023-05-02T01:45:21.868Z,12.50
2023-05-02T01:47:50.013Z,12.98
2023-05-02T01:50:23.285Z,14.23
2023-05-02T01:52:54.090Z,9.32
2023-05-02T01:55:22.223Z,10.35
2023-05-02T01:57:52.285Z,16.70
2023-05-02T02:00:21.527Z,10.80
2023-05-02T02:02:51.246Z,16.58
2023-05-02T02:05:19.830Z,10.82
2023-05-02T02:07:47.039Z,16.60
2023-05-02T02:10:14.360Z,16.55
2023-05-02T02:12:52.264Z,17.08
2023-05-02T02:15:25.709Z,15.93
2023-05-02T02:18:00.367Z,15.85
2023-05-02T02:20:29.566Z,14.80
2023-05-02T02:22:58.753Z,14.18
2023-05-02T02:25:27.027Z,15.57
2023-05-02T02:27:54.511Z,13.38
2023-05-02T02:30:21.536Z,10.98
2023-05-02T02:32:48.537Z,11.27
2023-05-02T02:35:15.855Z,12.65
2023-05-02T02:38:11.132Z,13.15
2023-05-02T02:41:00.981Z,8.80
2023-05-02T02:43:36.295Z,7.47
2023-05-02T02:46:09.600Z,11.85
2023-05-02T02:48:57.452Z,7.95
2023-05-02T02:51:48.180Z,13.15
2023-05-02T02:54:30.046Z,13.30
2023-05-02T02:57:19.720Z,10.73
2023-05-02T02:59:59.918Z,15.90
2023-05-02T03:02:32.766Z,18.90
2023-05-02T03:05:02.487Z,12.57
2023-05-02T03:07:30.489Z,14.93
2023-05-02T03:09:59.605Z,9.52
2023-05-02T03:12:27.387Z,8.38
2023-05-02T03:15:03.298Z,11.63
2023-05-02T03:17:30.434Z,9.00
2023-05-02T03:19:57.640Z,13.27
2023-05-02T03:22:24.851Z,14.65
2023-05-02T03:24:52.388Z,9.15
2023-05-02T03:27:19.403Z,11.88
2023-05-02T03:29:47.813Z,11.75
2023-05-02T03:32:15.073Z,13.07
2023-05-02T03:34:43.840Z,12.90
2023-05-02T03:37:11.623Z,12.32
2023-05-02T03:39:38.727Z,11.60
2023-05-02T03:42:06.026Z,16.27
2023-05-02T03:44:32.934Z,11.65
2023-05-02T03:47:00.055Z,10.75
2023-05-02T03:49:28.320Z,14.68
2023-05-02T03:51:55.333Z,16.63
2023-05-02T03:54:27.194Z,15.45
2023-05-02T03:56:55.505Z,12.93
2023-05-02T03:59:28.240Z,11.73
2023-05-02T04:01:56.468Z,16.98
2023-05-02T04:04:32.526Z,16.80
2023-05-02T04:06:59.875Z,11.30
2023-05-02T04:09:27.110Z,16.65
2023-05-02T04:11:59.037Z,11.85
2023-05-02T04:14:25.984Z,12.40
2023-05-02T04:16:54.846Z,16.77
2023-05-02T04:19:30.327Z,11.45
2023-05-02T04:21:57.601Z,10.35
2023-05-02T04:24:25.024Z,10.48
2023-05-02T04:26:52.160Z,19.10
2023-05-02T04:29:19.546Z,19.45
2023-05-02T04:31:46.802Z,16.73
2023-05-02T04:34:15.453Z,8.35
2023-05-02T04:36:46.360Z,14.18
2023-05-02T04:39:17.495Z,10.15
2023-05-02T04:41:53.802Z,9.95
2023-05-02T04:44:39.329Z,9.75
2023-05-02T04:47:06.510Z,9.05
2023-05-02T04:49:33.533Z,9.15
2023-05-02T04:52:00.623Z,8.90
2023-05-02T04:54:28.114Z,12.25
2023-05-02T04:56:55.071Z,11.50
2023-05-02T04:59:23.377Z,7.82
2023-05-02T05:01:50.466Z,11.55
2023-05-02T05:04:18.178Z,11.48
2023-05-02T05:06:47.435Z,7.78
2023-05-02T05:09:14.872Z,7.97
2023-05-02T05:11:43.614Z,6.95
2023-05-02T05:14:10.615Z,6.43
2023-05-02T05:16:39.721Z,6.22
2023-05-02T05:19:06.846Z,6.22
2023-05-02T05:21:35.067Z,8.80
2023-05-02T05:24:03.305Z,6.55
2023-05-02T05:26:30.459Z,6.38
2023-05-02T05:28:58.009Z,5.53
2023-05-02T05:31:27.932Z,6.68
2023-05-02T05:33:58.943Z,4.50
2023-05-02T05:36:27.880Z,7.07
2023-05-02T05:38:54.802Z,7.10
2023-05-02T05:41:23.214Z,7.20
2023-05-02T05:43:56.368Z,5.72
2023-05-02T05:46:25.410Z,4.97
2023-05-02T05:48:52.360Z,5.13
2023-05-02T05:51:19.708Z,6.05
2023-05-02T05:53:47.009Z,4.40
2023-05-02T05:56:14.532Z,6.00
2023-05-02T05:58:47.968Z,6.43
2023-05-02T06:01:15.344Z,7.40
2023-05-02T06:03:42.497Z,4.55
2023-05-02T06:06:09.637Z,6.95
2023-05-02T06:08:36.833Z,4.43
2023-05-02T06:11:09.813Z,4.78
2023-05-02T06:13:37.143Z,6.50
2023-05-02T06:16:05.334Z,4.30
2023-05-02T06:18:32.709Z,5.75
2023-05-02T06:21:06.575Z,5.75
2023-05-02T06:23:33.512Z,6.18
2023-05-02T06:26:02.222Z,3.90
2023-05-02T06:28:30.017Z,6.18
2023-05-02T06:31:04.809Z,5.78
2023-05-02T06:33:32.977Z,6.47
2023-05-02T06:36:01.733Z,43.88
2023-05-02T06:38:29.814Z,6.45
2023-05-02T06:40:56.684Z,5.18
2023-05-02T06:43:23.812Z,4.55
2023-05-02T06:45:54.583Z,5.80
2023-05-02T06:48:21.799Z,6.38
2023-05-02T06:50:49.471Z,6.25
2023-05-02T06:53:16.447Z,4.28
2023-05-02T06:55:45.003Z,4.60
2023-05-02T06:58:12.356Z,5.80
2023-05-02T07:00:39.346Z,6.15
2023-05-02T07:03:06.751Z,5.90
2023-05-02T07:05:33.772Z,6.75
2023-05-02T07:08:00.782Z,6.85
2023-05-02T07:10:27.839Z,6.30
2023-05-02T07:12:54.777Z,5.03
2023-05-02T07:15:21.739Z,6.68
2023-05-02T07:17:49.660Z,6.50
2023-05-02T07:20:16.763Z,4.45
2023-05-02T07:22:43.720Z,5.97
2023-05-02T07:25:10.959Z,4.70
2023-05-02T07:27:38.072Z,5.35
2023-05-02T07:30:06.653Z,5.40
2023-05-02T07:32:33.836Z,4.97
2023-05-02T07:35:01.836Z,4.53
2023-05-02T07:37:34.511Z,4.55
2023-05-02T07:40:02.231Z,4.68
2023-05-02T07:42:33.018Z,4.15
2023-05-02T07:45:00.364Z,4.53
2023-05-02T07:47:27.668Z,4.00
2023-05-02T07:49:55.992Z,4.28
2023-05-02T07:52:22.965Z,3.28
2023-05-02T07:54:50.280Z,3.60
2023-05-02T07:57:18.094Z,4.10
2023-05-02T07:59:45.276Z,3.90
2023-05-02T08:02:13.903Z,2.90
2023-05-02T08:04:41.533Z,3.45
2023-05-02T08:07:08.850Z,3.50
2023-05-02T08:09:35.857Z,3.70
2023-05-02T08:12:03.369Z,3.75
2023-05-02T08:14:30.493Z,3.60
2023-05-02T08:16:58.501Z,3.80
2023-05-02T08:19:25.539Z,3.80
2023-05-02T08:21:54.399Z,4.32
2023-05-02T08:24:21.986Z,3.80
2023-05-02T08:26:48.873Z,4.28
2023-05-02T08:29:16.239Z,3.97
2023-05-02T08:31:43.436Z,3.95
2023-05-02T08:34:10.543Z,3.67
2023-05-02T08:36:37.583Z,3.47
2023-05-02T08:39:04.657Z,3.40
2023-05-02T08:41:31.731Z,4.05
2023-05-02T08:43:59.900Z,3.85
2023-05-02T08:46:28.534Z,3.55
2023-05-02T08:48:59.185Z,3.67
2023-05-02T08:51:29.088Z,3.30
2023-05-02T08:53:58.553Z,3.53
2023-05-02T08:56:26.724Z,3.40
2023-05-02T08:58:53.755Z,3.78
2023-05-02T09:01:23.813Z,4.30
2023-05-02T09:03:52.287Z,3.65
2023-05-02T09:06:21.937Z,3.72
2023-05-02T09:08:50.132Z,3.17
2023-05-02T09:11:18.182Z,3.05
2023-05-02T09:13:47.236Z,3.00
2023-05-02T09:16:18.307Z,3.15
2023-05-02T09:18:48.011Z,3.33
2023-05-02T09:21:20.638Z,3.30
2023-05-02T09:23:56.565Z,3.70
2023-05-02T09:26:34.909Z,3.50
2023-05-02T09:29:04.696Z,3.42
2023-05-02T09:34:15.742Z,3.78
2023-05-02T09:36:45.377Z,3.00
2023-05-02T09:39:25.563Z,2.90
2023-05-02T09:41:53.444Z,3.22
2023-05-02T09:44:25.265Z,3.33
2023-05-02T09:46:54.217Z,3.00
2023-05-02T09:49:39.521Z,3.20
2023-05-02T09:52:13.886Z,2.95
2023-05-02T09:54:41.057Z,2.55
2023-05-02T09:57:08.137Z,2.83
2023-05-02T09:59:35.085Z,2.90
2023-05-02T10:02:07.495Z,2.85
2023-05-02T10:04:35.290Z,2.72
2023-05-02T10:07:03.595Z,3.13
2023-05-02T10:09:33.985Z,3.20
2023-05-02T10:12:05.109Z,3.20
2023-05-02T10:14:39.275Z,3.80
2023-05-02T10:17:13.192Z,3.90
2023-05-02T10:20:07.324Z,3.42
2023-05-02T10:22:35.337Z,2.88
2023-05-02T10:25:03.822Z,3.15
2023-05-02T10:27:32.904Z,3.75
2023-05-02T10:30:00.708Z,3.20
2023-05-02T10:32:33.411Z,3.20
2023-05-02T10:35:08.221Z,2.30
2023-05-02T10:37:38.433Z,2.28
2023-05-02T10:40:06.480Z,2.90
2023-05-02T10:42:39.616Z,2.70
2023-05-02T10:45:30.358Z,2.13
2023-05-02T10:48:17.147Z,2.13
2023-05-02T10:50:51.304Z,1.67
2023-05-02T10:53:30.208Z,1.23
2023-05-02T10:56:18.181Z,1.30
2023-05-02T10:58:46.433Z,1.10
2023-05-02T11:01:28.717Z,1.10
2023-05-02T11:03:58.059Z,1.30
2023-05-02T11:06:26.517Z,1.35
2023-05-02T11:09:13.842Z,1.45
2023-05-02T11:11:44.604Z,1.40
2023-05-02T11:14:32.447Z,1.13
2023-05-02T11:17:04.502Z,1.13
2023-05-02T11:19:57.548Z,1.10
2023-05-02T11:22:27.141Z,1.63
2023-05-02T11:24:54.499Z,1.30
2023-05-02T11:27:30.596Z,1.30
2023-05-02T11:30:01.460Z,1.30
2023-05-02T11:32:55.665Z,1.58
2023-05-02T11:35:24.956Z,1.30
2023-05-02T11:37:54.978Z,1.60
2023-05-02T11:40:22.818Z,1.40
2023-05-02T11:42:49.786Z,1.23
2023-05-02T11:45:17.151Z,1.40
2023-05-02T11:47:46.488Z,1.30
2023-05-02T11:50:14.509Z,1.38
2023-05-02T11:52:43.424Z,1.35
2023-05-02T11:55:15.235Z,1.63
2023-05-02T11:57:42.997Z,1.40
2023-05-02T12:00:13.591Z,1.60
2023-05-02T12:02:41.351Z,1.23
2023-05-02T12:05:10.923Z,1.50
2023-05-02T12:07:43.088Z,1.17
2023-05-02T12:10:11.095Z,1.10
2023-05-02T12:12:39.738Z,1.40
2023-05-02T12:15:08.573Z,1.48
2023-05-02T12:17:40.687Z,1.23
2023-05-02T12:20:12.291Z,1.50
2023-05-02T12:22:39.527Z,1.35
2023-05-02T12:25:07.227Z,1.40
2023-05-02T12:27:35.239Z,1.30
2023-05-02T12:30:02.821Z,1.15
2023-05-02T12:32:32.903Z,1.10
2023-05-02T12:35:02.083Z,1.25
2023-05-02T12:37:29.320Z,1.52
2023-05-02T12:39:56.858Z,1.42
2023-05-02T12:42:25.976Z,1.27
2023-05-02T12:44:53.336Z,1.45
2023-05-02T12:47:22.900Z,1.48
2023-05-02T12:49:50.622Z,1.55
2023-05-02T12:52:21.953Z,2.28
2023-05-02T12:54:48.982Z,1.60
2023-05-02T12:57:26.403Z,1.83
2023-05-02T12:59:56.734Z,1.85
2023-05-02T13:02:23.973Z,1.65
2023-05-02T13:04:51.528Z,1.73
2023-05-02T13:07:18.413Z,1.90
2023-05-02T13:09:45.338Z,2.10
2023-05-02T13:12:12.644Z,2.00
2023-05-02T13:14:39.890Z,2.17
2023-05-02T13:17:08.743Z,1.88
2023-05-02T13:19:37.380Z,1.60
2023-05-02T13:22:05.897Z,1.88
2023-05-02T13:24:32.901Z,2.05
2023-05-02T13:26:59.785Z,1.70
2023-05-02T13:29:26.777Z,1.48
2023-05-02T13:31:53.711Z,1.85
2023-05-02T13:34:20.717Z,1.50
2023-05-02T13:36:47.687Z,2.20
2023-05-02T13:39:14.884Z,1.98
2023-05-02T13:41:41.982Z,2.35
2023-05-02T13:44:09.498Z,2.85
2023-05-02T13:46:37.860Z,2.65
2023-05-02T13:49:05.990Z,2.30
2023-05-02T13:51:33.236Z,2.33
2023-05-02T13:54:01.099Z,2.50
2023-05-02T13:56:28.193Z,2.90
2023-05-02T13:58:55.208Z,3.63
2023-05-02T14:01:22.685Z,3.13
2023-05-02T14:03:50.962Z,3.00
2023-05-02T14:06:18.167Z,3.20
2023-05-02T14:08:45.366Z,3.35
2023-05-02T14:11:12.483Z,2.95
2023-05-02T14:13:39.396Z,3.20
2023-05-02T14:16:06.578Z,3.45
2023-05-02T14:18:33.667Z,3.33
2023-05-02T14:21:01.097Z,4.22
2023-05-02T14:23:30.815Z,4.70
2023-05-02T14:25:57.752Z,5.28
2023-05-02T14:28:24.707Z,3.60
2023-05-02T14:30:52.032Z,3.50
2023-05-02T14:33:19.075Z,4.13
2023-05-02T14:35:49.118Z,4.15
2023-05-02T14:38:16.286Z,3.60
2023-05-02T14:40:43.257Z,3.80
2023-05-02T14:43:12.469Z,4.10
2023-05-02T14:45:39.377Z,3.35
2023-05-02T14:48:08.023Z,3.45
2023-05-02T14:50:37.237Z,4.20
2023-05-02T14:53:04.192Z,3.95
2023-05-02T14:55:35.701Z,3.70
2023-05-02T14:58:02.924Z,3.25
2023-05-02T15:00:30.094Z,3.80
2023-05-02T15:02:57.174Z,4.22
2023-05-02T15:05:24.395Z,4.00
2023-05-02T15:07:51.385Z,4.05
2023-05-02T15:10:18.312Z,3.80
2023-05-02T15:12:46.825Z,3.78
2023-05-02T15:15:14.530Z,4.05
2023-05-02T15:17:41.537Z,4.53
2023-05-02T15:20:09.080Z,4.90
2023-05-02T15:22:36.013Z,4.30
2023-05-02T15:25:04.584Z,4.00
2023-05-02T15:27:32.354Z,3.97
2023-05-02T15:29:59.696Z,4.18
2023-05-02T15:32:26.870Z,4.10
2023-05-02T15:34:54.008Z,4.32
2023-05-02T15:37:21.221Z,4.03
2023-05-02T15:39:48.173Z,3.97
2023-05-02T15:42:15.101Z,3.75
2023-05-02T15:44:42.149Z,4.45
2023-05-02T15:47:09.105Z,4.13
2023-05-02T15:49:36.461Z,4.35
2023-05-02T15:52:03.514Z,4.15
2023-05-02T15:54:32.128Z,4.40
2023-05-02T15:56:59.349Z,4.68
2023-05-02T15:59:26.250Z,4.75
2023-05-02T16:01:53.519Z,4.43
2023-05-02T16:04:20.616Z,5.60
2023-05-02T16:06:47.597Z,5.28
2023-05-02T16:09:14.591Z,4.40
2023-05-02T16:11:41.940Z,5.20
2023-05-02T16:14:08.977Z,4.45
2023-05-02T16:16:36.047Z,4.60
2023-05-02T16:19:03.200Z,4.72
2023-05-02T16:21:30.112Z,4.22
2023-05-02T16:23:57.062Z,4.30
2023-05-02T16:26:24.180Z,4.70
2023-05-02T16:28:51.238Z,4.93
2023-05-02T16:31:18.344Z,4.60
2023-05-02T16:33:45.722Z,4.13
2023-05-02T16:36:14.609Z,3.67
2023-05-02T16:38:41.812Z,4.28
2023-05-02T16:41:10.236Z,4.28
2023-05-02T16:43:37.738Z,3.90
2023-05-02T16:46:06.143Z,3.83
2023-05-02T16:48:34.072Z,4.10
2023-05-02T16:51:03.784Z,3.95
2023-05-02T16:53:31.687Z,4.15
2023-05-02T16:55:59.575Z,3.97
2023-05-02T16:58:29.115Z,3.92
2023-05-02T17:00:56.413Z,3.20
2023-05-02T17:03:23.469Z,3.15
2023-05-02T17:05:50.747Z,2.83
2023-05-02T17:08:17.701Z,2.72
2023-05-02T17:10:49.836Z,2.80
2023-05-02T17:13:16.917Z,2.35
2023-05-02T17:15:43.996Z,2.35
2023-05-02T17:18:11.669Z,2.60
2023-05-02T17:20:38.881Z,2.70
2023-05-02T17:23:06.000Z,3.38
2023-05-02T17:25:33.181Z,2.80
2023-05-02T17:28:00.349Z,2.53
2023-05-02T17:30:27.374Z,2.97
2023-05-02T17:32:54.465Z,2.90
2023-05-02T17:35:21.581Z,2.72
2023-05-02T17:37:48.505Z,2.92
2023-05-02T17:40:15.421Z,2.60
2023-05-02T17:42:48.976Z,2.92
2023-05-02T17:45:16.686Z,2.85
2023-05-02T17:47:43.957Z,3.08
2023-05-02T17:50:11.206Z,3.65
2023-05-02T17:52:38.766Z,2.90
2023-05-02T17:55:06.782Z,2.97
2023-05-02T17:57:33.763Z,3.25
2023-05-02T18:00:01.363Z,3.20
2023-05-02T18:02:28.733Z,3.13
2023-05-02T18:04:55.793Z,3.58
2023-05-02T18:07:28.983Z,3.35
2023-05-02T18:10:02.237Z,3.40
2023-05-02T18:12:29.698Z,3.10
2023-05-02T18:14:56.911Z,3.00
2023-05-02T18:17:24.258Z,3.22
2023-05-02T18:19:51.345Z,3.08
2023-05-02T18:22:21.293Z,3.40
2023-05-02T18:24:49.641Z,3.47
2023-05-02T18:27:17.209Z,4.22
2023-05-02T18:29:44.398Z,3.85
2023-05-02T18:32:11.422Z,4.32
2023-05-02T18:34:39.192Z,4.13
2023-05-02T18:37:06.981Z,5.25
2023-05-02T18:39:35.390Z,5.00
2023-05-02T18:42:03.565Z,4.70
2023-05-02T18:44:31.253Z,5.07
2023-05-02T18:46:58.185Z,5.30
2023-05-02T18:49:26.285Z,5.05
2023-05-02T18:51:54.557Z,4.60
2023-05-02T18:54:23.336Z,4.75
2023-05-02T18:56:50.465Z,5.03
2023-05-02T18:59:18.849Z,4.35
2023-05-02T19:01:48.549Z,4.68
2023-05-02T19:04:16.499Z,4.50
2023-05-02T19:06:43.656Z,4.68
2023-05-02T19:09:13.227Z,4.80
2023-05-02T19:11:40.711Z,4.15
2023-05-02T19:14:08.213Z,3.67
2023-05-02T19:16:38.082Z,4.10
2023-05-02T19:19:05.457Z,3.72
2023-05-02T19:21:34.131Z,3.25
2023-05-02T19:26:29.020Z,3.58
2023-05-02T19:28:57.048Z,10.82
2023-05-02T19:31:24.315Z,15.43
2023-05-02T19:33:51.720Z,3.50
2023-05-02T19:36:20.366Z,3.45
2023-05-02T19:38:55.013Z,3.33
2023-05-02T19:41:24.724Z,3.30
2023-05-02T19:43:51.920Z,3.38
2023-05-02T19:46:19.492Z,3.60
2023-05-02T19:48:46.422Z,3.22
2023-05-02T19:51:13.579Z,3.03
2023-05-02T19:53:40.531Z,3.45
2023-05-02T19:56:07.511Z,3.22
2023-05-02T19:58:34.864Z,3.70
2023-05-02T20:01:01.943Z,3.95
2023-05-02T20:03:29.131Z,3.50
2023-05-02T20:05:57.547Z,3.50
2023-05-02T20:08:27.565Z,3.78
2023-05-02T20:10:55.601Z,3.70
2023-05-02T20:13:22.723Z,3.78
2023-05-02T20:15:50.804Z,3.83
2023-05-02T20:18:17.912Z,3.60
2023-05-02T20:20:45.600Z,3.72
2023-05-02T20:23:13.444Z,3.55
2023-05-02T20:25:41.228Z,3.28
2023-05-02T20:28:09.552Z,3.70
2023-05-02T20:30:36.564Z,3.97
2023-05-02T20:33:13.878Z,3.58
2023-05-02T20:35:41.584Z,3.70
2023-05-02T20:38:09.896Z,3.58
2023-05-02T20:40:43.449Z,4.03
2023-05-02T20:43:11.815Z,3.83
2023-05-02T20:45:40.114Z,3.25
2023-05-02T20:48:07.211Z,3.20
2023-05-02T20:50:34.295Z,3.17
2023-05-02T20:53:01.494Z,3.05
2023-05-02T20:55:28.693Z,3.03
2023-05-02T20:57:55.703Z,3.00
2023-05-02T21:00:22.860Z,2.75
2023-05-02T21:02:49.976Z,2.67
2023-05-02T21:05:17.215Z,2.85
2023-05-02T21:07:44.836Z,3.00
2023-05-02T21:10:11.932Z,2.97
2023-05-02T21:12:39.496Z,2.75
2023-05-02T21:15:07.748Z,2.83
2023-05-02T21:17:34.863Z,2.97
2023-05-02T21:20:02.184Z,3.00
2023-05-02T21:22:29.453Z,2.90
2023-05-02T21:24:56.518Z,2.40
2023-05-02T21:27:23.627Z,2.85
2023-05-02T21:29:50.938Z,3.30
2023-05-02T21:32:17.878Z,2.97
2023-05-02T21:34:44.769Z,2.78
2023-05-02T21:37:11.886Z,2.80
2023-05-02T21:39:39.116Z,2.80
2023-05-02T21:42:06.178Z,2.80
2023-05-02T21:44:33.202Z,3.05
2023-05-02T21:47:00.195Z,3.13
2023-05-02T21:49:30.012Z,3.03
2023-05-02T21:52:01.029Z,3.03
2023-05-02T21:54:33.168Z,3.10
2023-05-02T21:57:03.171Z,3.60
2023-05-02T21:59:31.763Z,3.65
2023-05-02T22:02:06.023Z,3.95
2023-05-02T22:04:36.281Z,4.30
2023-05-02T22:07:04.415Z,4.75
2023-05-02T22:09:33.768Z,4.68
2023-05-02T22:12:05.674Z,4.93
2023-05-02T22:14:41.587Z,4.80
2023-05-02T22:17:12.120Z,4.82
2023-05-02T22:19:39.348Z,5.35
2023-05-02T22:22:06.729Z,5.28
2023-05-02T22:24:34.089Z,5.65
2023-05-02T22:27:01.605Z,4.80
2023-05-02T22:29:29.146Z,5.18
2023-05-02T22:31:56.176Z,4.97
2023-05-02T22:34:23.299Z,5.28
2023-05-02T22:36:50.299Z,4.82
2023-05-02T22:39:17.261Z,4.97
2023-05-02T22:41:44.366Z,5.53
2023-05-02T22:44:11.620Z,6.68
2023-05-02T22:46:38.985Z,4.82
2023-05-02T22:49:10.434Z,5.82
2023-05-02T22:51:40.180Z,4.80
2023-05-02T22:54:08.097Z,5.05
2023-05-02T22:56:35.482Z,5.20
2023-05-02T22:59:02.427Z,4.70
2023-05-02T23:01:29.508Z,4.60
2023-05-02T23:03:56.610Z,5.03
2023-05-02T23:06:23.676Z,5.00
2023-05-02T23:08:50.814Z,5.20
2023-05-02T23:11:17.796Z,4.78
2023-05-02T23:13:44.872Z,3.92
2023-05-02T23:16:11.931Z,4.45
2023-05-02T23:18:38.944Z,4.32
2023-05-02T23:21:13.286Z,3.83
2023-05-02T23:23:40.349Z,4.50
2023-05-02T23:26:08.782Z,4.15
2023-05-02T23:28:35.730Z,5.00
2023-05-02T23:31:03.339Z,4.70
2023-05-02T23:33:31.453Z,4.88
2023-05-02T23:35:58.843Z,4.38
2023-05-02T23:38:26.184Z,4.32
2023-05-02T23:40:53.196Z,4.57
2023-05-02T23:43:21.802Z,4.40
2023-05-02T23:45:48.734Z,4.78
2023-05-02T23:48:15.688Z,5.07
2023-05-02T23:50:42.792Z,4.50
2023-05-02T23:53:09.697Z,4.80
2023-05-02T23:55:36.929Z,5.47
2023-05-02T23:58:03.895Z,5.05
